sensor_id;sensor_type;location;lat;lon;timestamp;P1;durP1;ratioP1;P2;durP2;ratioP2
22320;SDS011;11328;53.928;18.522;2023-10-09T00:02:08;9.65;;;3.20;;
22320;SDS011;11328;53.928;18.522;2023-10-09T00:04:37;9.55;;;3.80;;
22320;SDS011;11328;53.928;18.522;2023-10-09T00:07:08;9.10;;;3.60;;
22320;SDS011;11328;53.928;18.522;2023-10-09T00:09:38;9.48;;;3.72;;
22320;SDS011;11328;53.928;18.522;2023-10-09T00:12:18;8.93;;;3.38;;
22320;SDS011;11328;53.928;18.522;2023-10-09T00:14:50;9.38;;;3.33;;
22320;SDS011;11328;53.928;18.522;2023-10-09T00:17:22;7.45;;;2.80;;
22320;SDS011;11328;53.928;18.522;2023-10-09T00:19:50;9.48;;;2.88;;
22320;SDS011;11328;53.928;18.522;2023-10-09T00:22:18;7.28;;;2.78;;
22320;SDS011;11328;53.928;18.522;2023-10-09T00:24:57;6.07;;;2.88;;
22320;SDS011;11328;53.928;18.522;2023-10-09T00:27:41;7.63;;;3.08;;
22320;SDS011;11328;53.928;18.522;2023-10-09T00:30:13;7.57;;;3.03;;
22320;SDS011;11328;53.928;18.522;2023-10-09T00:32:47;7.90;;;3.13;;
22320;SDS011;11328;53.928;18.522;2023-10-09T00:35:37;8.82;;;3.47;;
22320;SDS011;11328;53.928;18.522;2023-10-09T00:38:10;10.13;;;3.15;;
22320;SDS011;11328;53.928;18.522;2023-10-09T00:40:47;8.98;;;3.58;;
22320;SDS011;11328;53.928;18.522;2023-10-09T00:43:28;7.72;;;3.20;;
22320;SDS011;11328;53.928;18.522;2023-10-09T00:45:56;8.23;;;3.00;;
22320;SDS011;11328;53.928;18.522;2023-10-09T00:48:36;7.15;;;2.80;;
22320;SDS011;11328;53.928;18.522;2023-10-09T00:51:07;12.13;;;3.08;;
22320;SDS011;11328;53.928;18.522;2023-10-09T00:53:48;8.60;;;3.13;;
22320;SDS011;11328;53.928;18.522;2023-10-09T00:56:22;7.20;;;2.95;;
22320;SDS011;11328;53.928;18.522;2023-10-09T00:58:53;10.85;;;3.28;;
22320;SDS011;11328;53.928;18.522;2023-10-09T01:01:35;7.60;;;3.30;;
22320;SDS011;11328;53.928;18.522;2023-10-09T01:04:06;10.20;;;3.28;;
22320;SDS011;11328;53.928;18.522;2023-10-09T01:06:45;8.25;;;3.13;;
22320;SDS011;11328;53.928;18.522;2023-10-09T01:09:35;9.07;;;3.10;;
22320;SDS011;11328;53.928;18.522;2023-10-09T01:12:04;12.30;;;3.10;;
22320;SDS011;11328;53.928;18.522;2023-10-09T01:14:31;7.65;;;2.92;;
22320;SDS011;11328;53.928;18.522;2023-10-09T01:17:03;7.90;;;3.10;;
22320;SDS011;11328;53.928;18.522;2023-10-09T01:19:37;9.55;;;4.15;;
22320;SDS011;11328;53.928;18.522;2023-10-09T01:22:04;8.30;;;3.40;;
22320;SDS011;11328;53.928;18.522;2023-10-09T01:24:39;8.93;;;3.40;;
22320;SDS011;11328;53.928;18.522;2023-10-09T01:27:07;10.32;;;3.33;;
22320;SDS011;11328;53.928;18.522;2023-10-09T01:29:42;9.45;;;3.67;;
22320;SDS011;11328;53.928;18.522;2023-10-09T01:32:12;8.93;;;3.47;;
22320;SDS011;11328;53.928;18.522;2023-10-09T01:34:43;8.23;;;2.95;;
22320;SDS011;11328;53.928;18.522;2023-10-09T01:37:13;11.10;;;3.20;;
22320;SDS011;11328;53.928;18.522;2023-10-09T01:39:49;8.90;;;3.83;;
22320;SDS011;11328;53.928;18.522;2023-10-09T01:42:18;9.52;;;3.53;;
22320;SDS011;11328;53.928;18.522;2023-10-09T01:44:56;7.93;;;3.30;;
22320;SDS011;11328;53.928;18.522;2023-10-09T01:47:53;9.10;;;3.50;;
22320;SDS011;11328;53.928;18.522;2023-10-09T01:50:21;11.13;;;3.85;;
22320;SDS011;11328;53.928;18.522;2023-10-09T01:52:53;8.98;;;3.53;;
22320;SDS011;11328;53.928;18.522;2023-10-09T01:55:20;8.63;;;4.00;;
22320;SDS011;11328;53.928;18.522;2023-10-09T01:58:02;6.72;;;2.90;;
22320;SDS011;11328;53.928;18.522;2023-10-09T02:01:02;9.70;;;3.72;;
22320;SDS011;11328;53.928;18.522;2023-10-09T02:03:31;10.35;;;3.33;;
22320;SDS011;11328;53.928;18.522;2023-10-09T02:06:03;10.48;;;3.40;;
22320;SDS011;11328;53.928;18.522;2023-10-09T02:08:31;7.45;;;3.10;;
22320;SDS011;11328;53.928;18.522;2023-10-09T02:11:02;8.50;;;3.22;;
22320;SDS011;11328;53.928;18.522;2023-10-09T02:13:29;9.95;;;4.00;;
22320;SDS011;11328;53.928;18.522;2023-10-09T02:15:58;11.68;;;5.03;;
22320;SDS011;11328;53.928;18.522;2023-10-09T02:18:39;8.93;;;3.25;;
22320;SDS011;11328;53.928;18.522;2023-10-09T02:21:07;8.55;;;3.10;;
22320;SDS011;11328;53.928;18.522;2023-10-09T02:23:35;8.18;;;3.20;;
22320;SDS011;11328;53.928;18.522;2023-10-09T02:26:18;9.32;;;2.75;;
22320;SDS011;11328;53.928;18.522;2023-10-09T02:28:46;8.68;;;2.80;;
22320;SDS011;11328;53.928;18.522;2023-10-09T02:31:19;8.27;;;3.08;;
22320;SDS011;11328;53.928;18.522;2023-10-09T02:33:49;8.30;;;2.80;;
22320;SDS011;11328;53.928;18.522;2023-10-09T02:36:22;8.57;;;3.03;;
22320;SDS011;11328;53.928;18.522;2023-10-09T02:38:49;8.75;;;2.97;;
22320;SDS011;11328;53.928;18.522;2023-10-09T02:41:19;8.10;;;3.00;;
22320;SDS011;11328;53.928;18.522;2023-10-09T02:43:49;7.63;;;3.05;;
22320;SDS011;11328;53.928;18.522;2023-10-09T02:46:17;11.43;;;2.85;;
22320;SDS011;11328;53.928;18.522;2023-10-09T02:48:47;7.25;;;3.08;;
22320;SDS011;11328;53.928;18.522;2023-10-09T02:51:19;9.03;;;3.20;;
22320;SDS011;11328;53.928;18.522;2023-10-09T02:53:56;8.38;;;2.97;;
22320;SDS011;11328;53.928;18.522;2023-10-09T02:56:53;8.15;;;2.85;;
22320;SDS011;11328;53.928;18.522;2023-10-09T02:59:32;7.38;;;2.70;;
22320;SDS011;11328;53.928;18.522;2023-10-09T03:02:00;7.35;;;3.05;;
22320;SDS011;11328;53.928;18.522;2023-10-09T03:04:27;10.32;;;3.10;;
22320;SDS011;11328;53.928;18.522;2023-10-09T03:06:56;8.10;;;3.00;;
22320;SDS011;11328;53.928;18.522;2023-10-09T03:09:27;7.88;;;2.90;;
22320;SDS011;11328;53.928;18.522;2023-10-09T03:11:58;11.63;;;4.45;;
22320;SDS011;11328;53.928;18.522;2023-10-09T03:14:32;6.65;;;2.75;;
22320;SDS011;11328;53.928;18.522;2023-10-09T03:17:07;7.93;;;2.90;;
22320;SDS011;11328;53.928;18.522;2023-10-09T03:19:38;7.55;;;2.65;;
22320;SDS011;11328;53.928;18.522;2023-10-09T03:22:06;7.35;;;2.70;;
22320;SDS011;11328;53.928;18.522;2023-10-09T03:24:38;7.78;;;2.78;;
22320;SDS011;11328;53.928;18.522;2023-10-09T03:27:14;9.25;;;3.78;;
22320;SDS011;11328;53.928;18.522;2023-10-09T03:29:42;9.85;;;3.33;;
22320;SDS011;11328;53.928;18.522;2023-10-09T03:32:15;7.65;;;2.63;;
22320;SDS011;11328;53.928;18.522;2023-10-09T03:34:42;7.15;;;2.92;;
22320;SDS011;11328;53.928;18.522;2023-10-09T03:37:10;8.98;;;3.20;;
22320;SDS011;11328;53.928;18.522;2023-10-09T03:40:04;8.77;;;3.25;;
22320;SDS011;11328;53.928;18.522;2023-10-09T03:42:33;9.77;;;2.95;;
22320;SDS011;11328;53.928;18.522;2023-10-09T03:45:03;8.77;;;3.03;;
22320;SDS011;11328;53.928;18.522;2023-10-09T03:47:39;7.80;;;3.30;;
22320;SDS011;11328;53.928;18.522;2023-10-09T03:50:14;10.75;;;3.20;;
22320;SDS011;11328;53.928;18.522;2023-10-09T03:52:53;11.45;;;2.85;;
22320;SDS011;11328;53.928;18.522;2023-10-09T03:55:21;9.60;;;3.42;;
22320;SDS011;11328;53.928;18.522;2023-10-09T03:57:55;8.20;;;3.05;;
22320;SDS011;11328;53.928;18.522;2023-10-09T04:00:27;9.18;;;4.05;;
22320;SDS011;11328;53.928;18.522;2023-10-09T04:02:56;12.27;;;3.78;;
22320;SDS011;11328;53.928;18.522;2023-10-09T04:05:25;11.93;;;4.05;;
22320;SDS011;11328;53.928;18.522;2023-10-09T04:07:54;11.30;;;4.50;;
22320;SDS011;11328;53.928;18.522;2023-10-09T04:10:24;11.30;;;3.50;;
22320;SDS011;11328;53.928;18.522;2023-10-09T04:13:10;7.43;;;3.40;;
22320;SDS011;11328;53.928;18.522;2023-10-09T04:15:43;9.05;;;3.53;;
22320;SDS011;11328;53.928;18.522;2023-10-09T04:18:10;11.70;;;4.63;;
22320;SDS011;11328;53.928;18.522;2023-10-09T04:20:42;12.38;;;3.85;;
22320;SDS011;11328;53.928;18.522;2023-10-09T04:23:28;12.13;;;4.90;;
22320;SDS011;11328;53.928;18.522;2023-10-09T04:26:13;15.80;;;4.43;;
22320;SDS011;11328;53.928;18.522;2023-10-09T04:28:40;15.27;;;5.00;;
22320;SDS011;11328;53.928;18.522;2023-10-09T04:31:08;12.85;;;4.93;;
22320;SDS011;11328;53.928;18.522;2023-10-09T04:33:36;12.00;;;5.40;;
22320;SDS011;11328;53.928;18.522;2023-10-09T04:36:20;11.75;;;4.47;;
22320;SDS011;11328;53.928;18.522;2023-10-09T04:38:48;8.45;;;3.75;;
22320;SDS011;11328;53.928;18.522;2023-10-09T04:41:25;10.65;;;3.33;;
22320;SDS011;11328;53.928;18.522;2023-10-09T04:43:59;8.95;;;3.22;;
22320;SDS011;11328;53.928;18.522;2023-10-09T04:46:46;8.57;;;2.80;;
22320;SDS011;11328;53.928;18.522;2023-10-09T04:49:40;9.40;;;3.35;;
22320;SDS011;11328;53.928;18.522;2023-10-09T04:52:32;10.38;;;3.50;;
22320;SDS011;11328;53.928;18.522;2023-10-09T04:54:59;10.48;;;3.20;;
22320;SDS011;11328;53.928;18.522;2023-10-09T04:57:34;11.65;;;4.63;;
22320;SDS011;11328;53.928;18.522;2023-10-09T05:00:13;7.35;;;3.05;;
22320;SDS011;11328;53.928;18.522;2023-10-09T05:02:55;11.00;;;3.65;;
22320;SDS011;11328;53.928;18.522;2023-10-09T05:05:37;6.68;;;2.72;;
22320;SDS011;11328;53.928;18.522;2023-10-09T05:08:11;9.52;;;3.58;;
22320;SDS011;11328;53.928;18.522;2023-10-09T05:10:52;10.60;;;3.88;;
22320;SDS011;11328;53.928;18.522;2023-10-09T05:13:28;16.67;;;4.05;;
22320;SDS011;11328;53.928;18.522;2023-10-09T05:16:06;7.70;;;3.13;;
22320;SDS011;11328;53.928;18.522;2023-10-09T05:18:55;10.65;;;3.78;;
22320;SDS011;11328;53.928;18.522;2023-10-09T05:21:24;9.95;;;4.55;;
22320;SDS011;11328;53.928;18.522;2023-10-09T05:24:02;10.75;;;4.45;;
22320;SDS011;11328;53.928;18.522;2023-10-09T05:26:44;8.60;;;3.42;;
22320;SDS011;11328;53.928;18.522;2023-10-09T05:29:24;8.73;;;3.35;;
22320;SDS011;11328;53.928;18.522;2023-10-09T05:32:05;10.85;;;4.55;;
22320;SDS011;11328;53.928;18.522;2023-10-09T05:34:39;10.10;;;4.22;;
22320;SDS011;11328;53.928;18.522;2023-10-09T05:37:25;10.60;;;3.67;;
22320;SDS011;11328;53.928;18.522;2023-10-09T05:40:02;9.05;;;4.43;;
22320;SDS011;11328;53.928;18.522;2023-10-09T05:42:45;12.60;;;5.57;;
22320;SDS011;11328;53.928;18.522;2023-10-09T05:45:24;11.63;;;5.45;;
22320;SDS011;11328;53.928;18.522;2023-10-09T05:48:12;11.68;;;4.47;;
22320;SDS011;11328;53.928;18.522;2023-10-09T05:50:39;12.27;;;4.15;;
22320;SDS011;11328;53.928;18.522;2023-10-09T05:53:26;8.35;;;3.60;;
22320;SDS011;11328;53.928;18.522;2023-10-09T05:56:12;12.73;;;3.90;;
22320;SDS011;11328;53.928;18.522;2023-10-09T05:58:54;11.52;;;3.90;;
22320;SDS011;11328;53.928;18.522;2023-10-09T06:01:40;9.50;;;3.80;;
22320;SDS011;11328;53.928;18.522;2023-10-09T06:04:25;11.57;;;3.83;;
22320;SDS011;11328;53.928;18.522;2023-10-09T06:07:11;8.88;;;3.55;;
22320;SDS011;11328;53.928;18.522;2023-10-09T06:09:40;12.40;;;3.90;;
22320;SDS011;11328;53.928;18.522;2023-10-09T06:12:20;8.35;;;4.32;;
22320;SDS011;11328;53.928;18.522;2023-10-09T06:15:00;9.32;;;3.47;;
22320;SDS011;11328;53.928;18.522;2023-10-09T06:17:57;13.52;;;3.30;;
22320;SDS011;11328;53.928;18.522;2023-10-09T06:20:44;7.38;;;3.40;;
22320;SDS011;11328;53.928;18.522;2023-10-09T06:23:29;7.95;;;3.33;;
22320;SDS011;11328;53.928;18.522;2023-10-09T06:26:29;8.60;;;3.70;;
22320;SDS011;11328;53.928;18.522;2023-10-09T06:28:59;8.15;;;3.80;;
22320;SDS011;11328;53.928;18.522;2023-10-09T06:31:41;10.55;;;4.13;;
22320;SDS011;11328;53.928;18.522;2023-10-09T06:34:28;8.23;;;3.78;;
22320;SDS011;11328;53.928;18.522;2023-10-09T06:37:11;11.02;;;4.25;;
22320;SDS011;11328;53.928;18.522;2023-10-09T06:39:50;14.05;;;4.35;;
22320;SDS011;11328;53.928;18.522;2023-10-09T06:42:24;8.73;;;3.83;;
22320;SDS011;11328;53.928;18.522;2023-10-09T06:45:11;10.20;;;3.72;;
22320;SDS011;11328;53.928;18.522;2023-10-09T06:47:48;8.63;;;3.53;;
22320;SDS011;11328;53.928;18.522;2023-10-09T06:50:26;10.25;;;3.45;;
22320;SDS011;11328;53.928;18.522;2023-10-09T06:53:13;9.95;;;4.13;;
22320;SDS011;11328;53.928;18.522;2023-10-09T06:55:40;11.45;;;4.00;;
22320;SDS011;11328;53.928;18.522;2023-10-09T06:58:17;8.13;;;3.80;;
22320;SDS011;11328;53.928;18.522;2023-10-09T07:00:52;9.68;;;3.30;;
22320;SDS011;11328;53.928;18.522;2023-10-09T07:03:26;7.70;;;3.28;;
22320;SDS011;11328;53.928;18.522;2023-10-09T07:06:03;9.38;;;3.60;;
22320;SDS011;11328;53.928;18.522;2023-10-09T07:08:54;6.93;;;3.42;;
22320;SDS011;11328;53.928;18.522;2023-10-09T07:11:38;9.32;;;3.00;;
22320;SDS011;11328;53.928;18.522;2023-10-09T07:16:55;8.02;;;2.95;;
22320;SDS011;11328;53.928;18.522;2023-10-09T07:19:42;12.15;;;3.20;;
22320;SDS011;11328;53.928;18.522;2023-10-09T07:22:10;11.07;;;3.50;;
22320;SDS011;11328;53.928;18.522;2023-10-09T07:24:48;7.05;;;3.00;;
22320;SDS011;11328;53.928;18.522;2023-10-09T07:27:26;7.07;;;2.90;;
22320;SDS011;11328;53.928;18.522;2023-10-09T07:30:17;9.25;;;3.10;;
22320;SDS011;11328;53.928;18.522;2023-10-09T07:32:58;10.05;;;3.50;;
22320;SDS011;11328;53.928;18.522;2023-10-09T07:35:38;9.40;;;3.45;;
22320;SDS011;11328;53.928;18.522;2023-10-09T07:38:09;8.93;;;3.47;;
22320;SDS011;11328;53.928;18.522;2023-10-09T07:40:38;7.30;;;3.30;;
22320;SDS011;11328;53.928;18.522;2023-10-09T07:43:24;9.15;;;3.45;;
22320;SDS011;11328;53.928;18.522;2023-10-09T07:46:06;8.77;;;3.63;;
22320;SDS011;11328;53.928;18.522;2023-10-09T07:48:53;8.43;;;3.60;;
22320;SDS011;11328;53.928;18.522;2023-10-09T07:51:22;11.48;;;4.10;;
22320;SDS011;11328;53.928;18.522;2023-10-09T07:53:58;10.30;;;4.55;;
22320;SDS011;11328;53.928;18.522;2023-10-09T07:56:39;11.60;;;4.90;;
22320;SDS011;11328;53.928;18.522;2023-10-09T07:59:08;10.50;;;4.40;;
22320;SDS011;11328;53.928;18.522;2023-10-09T08:01:44;10.80;;;4.53;;
22320;SDS011;11328;53.928;18.522;2023-10-09T08:04:19;11.15;;;4.50;;
22320;SDS011;11328;53.928;18.522;2023-10-09T08:07:04;11.52;;;4.75;;
22320;SDS011;11328;53.928;18.522;2023-10-09T08:09:55;13.65;;;4.82;;
22320;SDS011;11328;53.928;18.522;2023-10-09T08:12:54;10.13;;;4.07;;
22320;SDS011;11328;53.928;18.522;2023-10-09T08:15:25;9.25;;;3.97;;
22320;SDS011;11328;53.928;18.522;2023-10-09T08:18:15;8.52;;;3.10;;
22320;SDS011;11328;53.928;18.522;2023-10-09T08:20:54;7.72;;;2.72;;
22320;SDS011;11328;53.928;18.522;2023-10-09T08:23:25;9.93;;;3.10;;
22320;SDS011;11328;53.928;18.522;2023-10-09T08:26:12;7.70;;;2.90;;
22320;SDS011;11328;53.928;18.522;2023-10-09T08:28:40;7.13;;;2.60;;
22320;SDS011;11328;53.928;18.522;2023-10-09T08:31:12;6.93;;;2.87;;
22320;SDS011;11328;53.928;18.522;2023-10-09T08:34:00;7.28;;;2.80;;
22320;SDS011;11328;53.928;18.522;2023-10-09T08:36:31;6.78;;;2.63;;
22320;SDS011;11328;53.928;18.522;2023-10-09T08:39:16;6.28;;;2.45;;
22320;SDS011;11328;53.928;18.522;2023-10-09T08:41:43;5.38;;;1.95;;
22320;SDS011;11328;53.928;18.522;2023-10-09T08:44:11;5.03;;;2.00;;
22320;SDS011;11328;53.928;18.522;2023-10-09T08:46:41;4.88;;;2.20;;
22320;SDS011;11328;53.928;18.522;2023-10-09T08:49:11;5.28;;;1.92;;
22320;SDS011;11328;53.928;18.522;2023-10-09T08:51:38;6.10;;;1.90;;
22320;SDS011;11328;53.928;18.522;2023-10-09T08:54:08;8.18;;;2.30;;
22320;SDS011;11328;53.928;18.522;2023-10-09T08:56:38;5.90;;;2.13;;
22320;SDS011;11328;53.928;18.522;2023-10-09T08:59:16;4.85;;;1.83;;
22320;SDS011;11328;53.928;18.522;2023-10-09T09:01:47;3.85;;;1.80;;
22320;SDS011;11328;53.928;18.522;2023-10-09T09:04:35;30.45;;;4.30;;
22320;SDS011;11328;53.928;18.522;2023-10-09T09:07:22;4.28;;;1.80;;
22320;SDS011;11328;53.928;18.522;2023-10-09T09:09:59;5.07;;;1.87;;
22320;SDS011;11328;53.928;18.522;2023-10-09T09:12:44;4.18;;;1.63;;
22320;SDS011;11328;53.928;18.522;2023-10-09T09:15:13;5.18;;;1.70;;
22320;SDS011;11328;53.928;18.522;2023-10-09T09:17:45;3.42;;;1.58;;
22320;SDS011;11328;53.928;18.522;2023-10-09T09:20:19;5.47;;;1.98;;
22320;SDS011;11328;53.928;18.522;2023-10-09T09:23:12;4.50;;;1.70;;
22320;SDS011;11328;53.928;18.522;2023-10-09T09:25:46;6.93;;;1.88;;
22320;SDS011;11328;53.928;18.522;2023-10-09T09:28:24;4.53;;;1.50;;
22320;SDS011;11328;53.928;18.522;2023-10-09T09:31:08;4.50;;;1.27;;
22320;SDS011;11328;53.928;18.522;2023-10-09T09:33:55;2.78;;;1.27;;
22320;SDS011;11328;53.928;18.522;2023-10-09T09:36:24;3.00;;;1.38;;
22320;SDS011;11328;53.928;18.522;2023-10-09T09:38:55;4.05;;;1.55;;
22320;SDS011;11328;53.928;18.522;2023-10-09T09:41:27;4.53;;;1.60;;
22320;SDS011;11328;53.928;18.522;2023-10-09T09:44:00;10.02;;;3.35;;
22320;SDS011;11328;53.928;18.522;2023-10-09T09:46:33;6.28;;;1.98;;
22320;SDS011;11328;53.928;18.522;2023-10-09T09:49:02;3.63;;;1.50;;
22320;SDS011;11328;53.928;18.522;2023-10-09T09:52:02;4.70;;;1.20;;
22320;SDS011;11328;53.928;18.522;2023-10-09T09:54:36;4.10;;;1.40;;
22320;SDS011;11328;53.928;18.522;2023-10-09T09:57:05;3.47;;;1.25;;
22320;SDS011;11328;53.928;18.522;2023-10-09T09:59:37;4.47;;;1.48;;
22320;SDS011;11328;53.928;18.522;2023-10-09T10:02:30;2.92;;;1.23;;
22320;SDS011;11328;53.928;18.522;2023-10-09T10:05:05;14.40;;;2.00;;
22320;SDS011;11328;53.928;18.522;2023-10-09T10:07:38;3.47;;;1.27;;
22320;SDS011;11328;53.928;18.522;2023-10-09T10:13:00;5.93;;;1.30;;
22320;SDS011;11328;53.928;18.522;2023-10-09T10:16:13;2.70;;;1.30;;
22320;SDS011;11328;53.928;18.522;2023-10-09T10:18:59;3.75;;;1.10;;
22320;SDS011;11328;53.928;18.522;2023-10-09T10:21:33;3.60;;;1.15;;
22320;SDS011;11328;53.928;18.522;2023-10-09T10:35:36;3.03;;;0.98;;
22320;SDS011;11328;53.928;18.522;2023-10-09T10:41:10;3.70;;;1.80;;
22320;SDS011;11328;53.928;18.522;2023-10-09T10:43:44;2.70;;;1.05;;
22320;SDS011;11328;53.928;18.522;2023-10-09T10:46:19;9.90;;;1.67;;
22320;SDS011;11328;53.928;18.522;2023-10-09T10:49:05;3.28;;;1.10;;
22320;SDS011;11328;53.928;18.522;2023-10-09T10:51:38;3.28;;;1.23;;
22320;SDS011;11328;53.928;18.522;2023-10-09T10:54:08;3.28;;;1.20;;
22320;SDS011;11328;53.928;18.522;2023-10-09T10:56:54;4.32;;;1.33;;
22320;SDS011;11328;53.928;18.522;2023-10-09T10:59:24;7.40;;;1.52;;
22320;SDS011;11328;53.928;18.522;2023-10-09T11:01:56;4.32;;;1.58;;
22320;SDS011;11328;53.928;18.522;2023-10-09T11:04:23;4.47;;;1.35;;
22320;SDS011;11328;53.928;18.522;2023-10-09T11:06:59;6.05;;;1.08;;
22320;SDS011;11328;53.928;18.522;2023-10-09T11:09:50;3.08;;;0.90;;
22320;SDS011;11328;53.928;18.522;2023-10-09T11:15:32;6.65;;;1.42;;
22320;SDS011;11328;53.928;18.522;2023-10-09T11:18:11;1.75;;;0.93;;
22320;SDS011;11328;53.928;18.522;2023-10-09T11:20:50;3.80;;;1.08;;
22320;SDS011;11328;53.928;18.522;2023-10-09T11:23:33;2.55;;;1.08;;
22320;SDS011;11328;53.928;18.522;2023-10-09T11:26:04;11.23;;;1.33;;
22320;SDS011;11328;53.928;18.522;2023-10-09T11:29:12;3.95;;;1.23;;
22320;SDS011;11328;53.928;18.522;2023-10-09T11:32:02;2.25;;;0.73;;
22320;SDS011;11328;53.928;18.522;2023-10-09T11:34:40;1.33;;;0.80;;
22320;SDS011;11328;53.928;18.522;2023-10-09T11:39:58;3.55;;;1.02;;
22320;SDS011;11328;53.928;18.522;2023-10-09T11:42:27;3.28;;;1.20;;
22320;SDS011;11328;53.928;18.522;2023-10-09T11:45:02;2.38;;;0.90;;
22320;SDS011;11328;53.928;18.522;2023-10-09T11:47:51;7.35;;;1.20;;
22320;SDS011;11328;53.928;18.522;2023-10-09T11:50:46;5.40;;;1.10;;
22320;SDS011;11328;53.928;18.522;2023-10-09T11:53:18;3.03;;;0.90;;
22320;SDS011;11328;53.928;18.522;2023-10-09T11:55:59;5.45;;;2.10;;
22320;SDS011;11328;53.928;18.522;2023-10-09T11:58:26;5.57;;;1.50;;
22320;SDS011;11328;53.928;18.522;2023-10-09T12:00:54;2.78;;;1.05;;
22320;SDS011;11328;53.928;18.522;2023-10-09T12:03:27;2.88;;;0.90;;
22320;SDS011;11328;53.928;18.522;2023-10-09T12:05:57;2.83;;;0.90;;
22320;SDS011;11328;53.928;18.522;2023-10-09T12:08:33;3.00;;;1.17;;
22320;SDS011;11328;53.928;18.522;2023-10-09T12:11:02;3.33;;;0.80;;
22320;SDS011;11328;53.928;18.522;2023-10-09T12:13:35;2.40;;;1.10;;
22320;SDS011;11328;53.928;18.522;2023-10-09T12:16:04;4.97;;;1.20;;
22320;SDS011;11328;53.928;18.522;2023-10-09T12:18:38;4.80;;;1.25;;
22320;SDS011;11328;53.928;18.522;2023-10-09T12:21:07;3.75;;;1.23;;
22320;SDS011;11328;53.928;18.522;2023-10-09T12:23:42;5.35;;;1.50;;
22320;SDS011;11328;53.928;18.522;2023-10-09T12:26:13;3.00;;;1.30;;
22320;SDS011;11328;53.928;18.522;2023-10-09T12:28:43;1.17;;;0.70;;
22320;SDS011;11328;53.928;18.522;2023-10-09T12:31:13;1.08;;;0.80;;
22320;SDS011;11328;53.928;18.522;2023-10-09T12:33:41;3.33;;;1.50;;
22320;SDS011;11328;53.928;18.522;2023-10-09T12:36:14;9.13;;;2.28;;
22320;SDS011;11328;53.928;18.522;2023-10-09T12:38:46;3.33;;;1.30;;
22320;SDS011;11328;53.928;18.522;2023-10-09T12:41:20;5.63;;;1.40;;
22320;SDS011;11328;53.928;18.522;2023-10-09T12:43:55;3.78;;;1.50;;
22320;SDS011;11328;53.928;18.522;2023-10-09T12:46:24;4.25;;;1.52;;
22320;SDS011;11328;53.928;18.522;2023-10-09T12:48:52;3.47;;;1.30;;
22320;SDS011;11328;53.928;18.522;2023-10-09T12:51:23;2.97;;;1.10;;
22320;SDS011;11328;53.928;18.522;2023-10-09T12:53:56;5.55;;;1.77;;
22320;SDS011;11328;53.928;18.522;2023-10-09T12:56:24;8.07;;;1.35;;
22320;SDS011;11328;53.928;18.522;2023-10-09T12:59:05;6.35;;;1.00;;
22320;SDS011;11328;53.928;18.522;2023-10-09T13:01:41;1.73;;;0.90;;
22320;SDS011;11328;53.928;18.522;2023-10-09T13:04:10;2.90;;;1.10;;
22320;SDS011;11328;53.928;18.522;2023-10-09T13:06:43;7.32;;;1.33;;
22320;SDS011;11328;53.928;18.522;2023-10-09T13:12:06;5.63;;;1.50;;
22320;SDS011;11328;53.928;18.522;2023-10-09T13:14:45;4.32;;;1.42;;
22320;SDS011;11328;53.928;18.522;2023-10-09T13:17:13;9.68;;;1.90;;
22320;SDS011;11328;53.928;18.522;2023-10-09T13:19:40;4.75;;;1.60;;
22320;SDS011;11328;53.928;18.522;2023-10-09T13:22:10;4.10;;;1.45;;
22320;SDS011;11328;53.928;18.522;2023-10-09T13:24:40;6.97;;;1.33;;
22320;SDS011;11328;53.928;18.522;2023-10-09T13:27:08;2.50;;;1.02;;
22320;SDS011;11328;53.928;18.522;2023-10-09T13:29:36;3.83;;;1.33;;
22320;SDS011;11328;53.928;18.522;2023-10-09T13:32:07;7.18;;;1.88;;
22320;SDS011;11328;53.928;18.522;2023-10-09T13:34:41;4.70;;;1.30;;
22320;SDS011;11328;53.928;18.522;2023-10-09T13:37:11;6.03;;;1.70;;
22320;SDS011;11328;53.928;18.522;2023-10-09T13:39:40;5.07;;;1.92;;
22320;SDS011;11328;53.928;18.522;2023-10-09T13:42:19;4.30;;;1.40;;
22320;SDS011;11328;53.928;18.522;2023-10-09T13:44:49;4.72;;;1.45;;
22320;SDS011;11328;53.928;18.522;2023-10-09T13:47:19;6.03;;;1.50;;
22320;SDS011;11328;53.928;18.522;2023-10-09T13:49:47;6.15;;;2.28;;
22320;SDS011;11328;53.928;18.522;2023-10-09T13:52:18;7.82;;;1.98;;
22320;SDS011;11328;53.928;18.522;2023-10-09T13:54:48;4.47;;;1.40;;
22320;SDS011;11328;53.928;18.522;2023-10-09T13:57:16;3.85;;;1.40;;
22320;SDS011;11328;53.928;18.522;2023-10-09T13:59:43;5.45;;;1.50;;
22320;SDS011;11328;53.928;18.522;2023-10-09T14:02:15;6.93;;;1.85;;
22320;SDS011;11328;53.928;18.522;2023-10-09T14:04:45;7.28;;;2.33;;
22320;SDS011;11328;53.928;18.522;2023-10-09T14:07:14;6.82;;;2.42;;
22320;SDS011;11328;53.928;18.522;2023-10-09T14:09:43;5.88;;;2.47;;
22320;SDS011;11328;53.928;18.522;2023-10-09T14:12:11;8.23;;;2.90;;
22320;SDS011;11328;53.928;18.522;2023-10-09T14:14:44;12.38;;;3.90;;
22320;SDS011;11328;53.928;18.522;2023-10-09T14:17:16;9.95;;;3.05;;
22320;SDS011;11328;53.928;18.522;2023-10-09T14:19:53;6.47;;;2.88;;
22320;SDS011;11328;53.928;18.522;2023-10-09T14:22:27;9.00;;;3.05;;
22320;SDS011;11328;53.928;18.522;2023-10-09T14:24:56;6.25;;;3.10;;
22320;SDS011;11328;53.928;18.522;2023-10-09T14:27:23;9.60;;;3.40;;
22320;SDS011;11328;53.928;18.522;2023-10-09T14:29:53;23.77;;;5.72;;
22320;SDS011;11328;53.928;18.522;2023-10-09T14:32:23;15.50;;;5.55;;
22320;SDS011;11328;53.928;18.522;2023-10-09T14:35:00;14.13;;;4.10;;
22320;SDS011;11328;53.928;18.522;2023-10-09T14:37:28;8.88;;;3.20;;
22320;SDS011;11328;53.928;18.522;2023-10-09T14:39:58;15.25;;;3.40;;
22320;SDS011;11328;53.928;18.522;2023-10-09T14:42:25;8.55;;;3.78;;
22320;SDS011;11328;53.928;18.522;2023-10-09T14:44:54;6.95;;;2.80;;
22320;SDS011;11328;53.928;18.522;2023-10-09T14:47:22;6.20;;;2.33;;
22320;SDS011;11328;53.928;18.522;2023-10-09T14:49:49;5.20;;;2.20;;
22320;SDS011;11328;53.928;18.522;2023-10-09T14:52:19;6.13;;;2.10;;
22320;SDS011;11328;53.928;18.522;2023-10-09T14:55:04;7.40;;;2.75;;
22320;SDS011;11328;53.928;18.522;2023-10-09T14:57:32;7.82;;;2.80;;
22320;SDS011;11328;53.928;18.522;2023-10-09T15:00:00;6.85;;;2.97;;
22320;SDS011;11328;53.928;18.522;2023-10-09T15:02:33;26.00;;;3.90;;
22320;SDS011;11328;53.928;18.522;2023-10-09T15:05:01;25.15;;;5.30;;
22320;SDS011;11328;53.928;18.522;2023-10-09T15:07:30;16.27;;;3.78;;
22320;SDS011;11328;53.928;18.522;2023-10-09T15:10:07;10.80;;;3.38;;
22320;SDS011;11328;53.928;18.522;2023-10-09T15:12:41;20.50;;;3.47;;
22320;SDS011;11328;53.928;18.522;2023-10-09T15:15:10;12.60;;;3.42;;
22320;SDS011;11328;53.928;18.522;2023-10-09T15:17:40;10.00;;;3.20;;
22320;SDS011;11328;53.928;18.522;2023-10-09T15:20:11;13.07;;;3.63;;
22320;SDS011;11328;53.928;18.522;2023-10-09T15:22:42;10.25;;;5.13;;
22320;SDS011;11328;53.928;18.522;2023-10-09T15:25:10;19.50;;;6.57;;
22320;SDS011;11328;53.928;18.522;2023-10-09T15:27:42;38.63;;;8.05;;
22320;SDS011;11328;53.928;18.522;2023-10-09T15:30:12;19.55;;;6.47;;
22320;SDS011;11328;53.928;18.522;2023-10-09T15:32:43;18.25;;;5.32;;
22320;SDS011;11328;53.928;18.522;2023-10-09T15:35:11;28.08;;;6.32;;
22320;SDS011;11328;53.928;18.522;2023-10-09T15:37:41;89.63;;;9.98;;
22320;SDS011;11328;53.928;18.522;2023-10-09T15:40:09;62.45;;;7.32;;
22320;SDS011;11328;53.928;18.522;2023-10-09T15:42:45;33.25;;;5.13;;
22320;SDS011;11328;53.928;18.522;2023-10-09T15:45:17;13.02;;;3.35;;
22320;SDS011;11328;53.928;18.522;2023-10-09T15:47:48;19.42;;;3.90;;